This is the latest recevied weather packets stored in our database for station/object KY0TEQ-13. If no packets are shown the sender has not sent any weather packets the latest 10 day(s).
| Time | Temp. | Humidity | Pressure | Rain* | Wind** | Luminosity | Snow |
|---|---|---|---|---|---|---|---|
| 1777869434 | 14.44° C | 29% | 1301.3 hPa | 0 mm | - | 0 W/m² | - |
| 1777869130 | 14.44° C | 29% | 1301.1 hPa | 0 mm | - | 0 W/m² | - |
| 1777868828 | 14.44° C | 29% | 1301.2 hPa | 0 mm | - | 0 W/m² | - |
| 1777868524 | 15° C | 27% | 1301.1 hPa | 0 mm | - | 0 W/m² | - |
| 1777868221 | 13.89° C | 28% | 1301 hPa | 0 mm | - | 0 W/m² | - |
| 1777867916 | 13.33° C | 30% | 1301 hPa | 0 mm | - | 0 W/m² | - |
| 1777867613 | 13.33° C | 29% | 1300.9 hPa | 0 mm | - | 0 W/m² | - |
| 1777867310 | 13.89° C | 29% | 1300.7 hPa | 0 mm | - | 0 W/m² | - |
| 1777867007 | 13.89° C | 27% | 1300.6 hPa | 0 mm | - | 0 W/m² | - |
| 1777866704 | 13.33° C | 27% | 1300.5 hPa | 0 mm | - | 0 W/m² | - |
| 1777865796 | 12.78° C | 31% | 1300.2 hPa | 0 mm | - | 0 W/m² | - |
| 1777865190 | 12.22° C | 33% | 1300 hPa | 0 mm | - | 0 W/m² | - |
| 1777863068 | 13.33° C | 27% | 1299.9 hPa | 0 mm | - | 0 W/m² | - |
| 1777847912 | 17.78° C | 19% | 1301.2 hPa | 0 mm | - | 166 W/m² | - |
| 1777847305 | 18.33° C | 19% | 1301.5 hPa | 0 mm | - | 575 W/m² | - |
| 1777845792 | 20.56° C | 17% | 1301.2 hPa | 0 mm | - | 491 W/m² | - |
| 1777844278 | 19.44° C | 18% | 1302.1 hPa | 0 mm | - | 660 W/m² | - |
| 1777843672 | 19.44° C | 18% | 1302.3 hPa | 0 mm | - | 689 W/m² | - |
| 1777843369 | 18.33° C | 21% | 1302.6 hPa | 0 mm | - | 702 W/m² | - |
| 1777843067 | 17.78° C | 19% | 1302.6 hPa | 0 mm | - | 172 W/m² | - |
| 1777842763 | 18.33° C | 20% | 1302.8 hPa | 0 mm | - | 204 W/m² | - |
| 1777842458 | 17.22° C | 20% | 1302.8 hPa | 0 mm | - | 806 W/m² | - |
| 1777841851 | 17.22° C | 20% | 1303 hPa | 0 mm | - | 161 W/m² | - |
| 1777841244 | 18.33° C | 18% | 1303.4 hPa | 0 mm | - | 339 W/m² | - |
| 1777840639 | 17.78° C | 19% | 1303.4 hPa | 0 mm | - | 361 W/m² | - |
* Rain latest hour (hover to see other rain measurements)
** Current wind speed in m/s (hover to see current wind gust speed)